sensor_id;sensor_type;location;lat;lon;timestamp;P1;durP1;ratioP1;P2;durP2;ratioP2
9729;SDS011;4904;49.152;11.004;2024-02-14T00:00:08;6.43;;;4.63;;
9729;SDS011;4904;49.152;11.004;2024-02-14T00:02:38;9.52;;;4.38;;
9729;SDS011;4904;49.152;11.004;2024-02-14T00:05:06;5.07;;;4.10;;
9729;SDS011;4904;49.152;11.004;2024-02-14T00:07:35;5.68;;;4.15;;
9729;SDS011;4904;49.152;11.004;2024-02-14T00:10:02;7.60;;;4.20;;
9729;SDS011;4904;49.152;11.004;2024-02-14T00:12:30;4.95;;;3.70;;
9729;SDS011;4904;49.152;11.004;2024-02-14T00:14:57;5.20;;;4.05;;
9729;SDS011;4904;49.152;11.004;2024-02-14T00:17:26;4.60;;;4.03;;
9729;SDS011;4904;49.152;11.004;2024-02-14T00:19:53;5.72;;;4.30;;
9729;SDS011;4904;49.152;11.004;2024-02-14T00:22:20;8.23;;;5.13;;
9729;SDS011;4904;49.152;11.004;2024-02-14T00:24:47;45.28;;;23.30;;
9729;SDS011;4904;49.152;11.004;2024-02-14T00:27:15;10.48;;;7.28;;
9729;SDS011;4904;49.152;11.004;2024-02-14T00:29:42;6.85;;;4.78;;
9729;SDS011;4904;49.152;11.004;2024-02-14T00:32:10;6.35;;;4.00;;
9729;SDS011;4904;49.152;11.004;2024-02-14T00:34:39;6.18;;;4.05;;
9729;SDS011;4904;49.152;11.004;2024-02-14T00:37:06;5.22;;;4.15;;
9729;SDS011;4904;49.152;11.004;2024-02-14T00:39:33;4.15;;;3.63;;
9729;SDS011;4904;49.152;11.004;2024-02-14T00:42:00;4.78;;;4.20;;
9729;SDS011;4904;49.152;11.004;2024-02-14T00:44:26;6.32;;;4.32;;
9729;SDS011;4904;49.152;11.004;2024-02-14T00:46:55;5.60;;;4.57;;
9729;SDS011;4904;49.152;11.004;2024-02-14T00:49:24;5.45;;;4.15;;
9729;SDS011;4904;49.152;11.004;2024-02-14T00:51:52;6.18;;;3.92;;
9729;SDS011;4904;49.152;11.004;2024-02-14T00:54:19;5.38;;;4.13;;
9729;SDS011;4904;49.152;11.004;2024-02-14T00:56:46;5.93;;;4.00;;
9729;SDS011;4904;49.152;11.004;2024-02-14T00:59:13;5.65;;;4.00;;
9729;SDS011;4904;49.152;11.004;2024-02-14T01:01:40;6.28;;;3.60;;
9729;SDS011;4904;49.152;11.004;2024-02-14T01:04:07;4.93;;;3.85;;
9729;SDS011;4904;49.152;11.004;2024-02-14T01:06:34;6.85;;;3.80;;
9729;SDS011;4904;49.152;11.004;2024-02-14T01:09:02;5.75;;;3.85;;
9729;SDS011;4904;49.152;11.004;2024-02-14T01:11:29;6.50;;;4.05;;
9729;SDS011;4904;49.152;11.004;2024-02-14T01:13:56;4.93;;;3.85;;
9729;SDS011;4904;49.152;11.004;2024-02-14T01:16:24;7.90;;;3.75;;
9729;SDS011;4904;49.152;11.004;2024-02-14T01:18:51;5.55;;;3.90;;
9729;SDS011;4904;49.152;11.004;2024-02-14T01:21:18;5.63;;;3.70;;
9729;SDS011;4904;49.152;11.004;2024-02-14T01:23:45;4.97;;;3.53;;
9729;SDS011;4904;49.152;11.004;2024-02-14T01:26:13;8.82;;;3.95;;
9729;SDS011;4904;49.152;11.004;2024-02-14T01:28:40;4.15;;;3.70;;
9729;SDS011;4904;49.152;11.004;2024-02-14T01:31:09;4.10;;;3.50;;
9729;SDS011;4904;49.152;11.004;2024-02-14T01:33:37;4.40;;;3.35;;
9729;SDS011;4904;49.152;11.004;2024-02-14T01:36:05;5.70;;;3.85;;
9729;SDS011;4904;49.152;11.004;2024-02-14T01:38:32;4.75;;;3.45;;
9729;SDS011;4904;49.152;11.004;2024-02-14T01:41:00;6.30;;;3.58;;
9729;SDS011;4904;49.152;11.004;2024-02-14T01:43:30;5.55;;;4.03;;
9729;SDS011;4904;49.152;11.004;2024-02-14T01:45:57;5.35;;;3.60;;
9729;SDS011;4904;49.152;11.004;2024-02-14T01:48:31;5.53;;;3.88;;
9729;SDS011;4904;49.152;11.004;2024-02-14T01:50:58;3.53;;;3.20;;
9729;SDS011;4904;49.152;11.004;2024-02-14T01:53:26;4.55;;;3.35;;
9729;SDS011;4904;49.152;11.004;2024-02-14T01:55:55;6.75;;;3.38;;
9729;SDS011;4904;49.152;11.004;2024-02-14T01:58:22;3.58;;;2.80;;
9729;SDS011;4904;49.152;11.004;2024-02-14T02:00:51;5.47;;;3.72;;
9729;SDS011;4904;49.152;11.004;2024-02-14T02:03:22;4.60;;;3.10;;
9729;SDS011;4904;49.152;11.004;2024-02-14T02:05:49;4.25;;;3.35;;
9729;SDS011;4904;49.152;11.004;2024-02-14T02:08:16;5.03;;;4.00;;
9729;SDS011;4904;49.152;11.004;2024-02-14T02:10:43;4.35;;;3.20;;
9729;SDS011;4904;49.152;11.004;2024-02-14T02:13:10;4.22;;;3.58;;
9729;SDS011;4904;49.152;11.004;2024-02-14T02:15:36;5.93;;;3.65;;
9729;SDS011;4904;49.152;11.004;2024-02-14T02:18:05;4.50;;;3.67;;
9729;SDS011;4904;49.152;11.004;2024-02-14T02:20:32;3.78;;;3.13;;
9729;SDS011;4904;49.152;11.004;2024-02-14T02:23:00;4.97;;;3.58;;
9729;SDS011;4904;49.152;11.004;2024-02-14T02:25:28;6.47;;;3.10;;
9729;SDS011;4904;49.152;11.004;2024-02-14T02:27:55;5.95;;;3.78;;
9729;SDS011;4904;49.152;11.004;2024-02-14T02:30:22;4.50;;;3.10;;
9729;SDS011;4904;49.152;11.004;2024-02-14T02:32:50;4.60;;;3.80;;
9729;SDS011;4904;49.152;11.004;2024-02-14T02:35:17;3.75;;;3.08;;
9729;SDS011;4904;49.152;11.004;2024-02-14T02:37:45;4.90;;;2.92;;
9729;SDS011;4904;49.152;11.004;2024-02-14T02:40:14;5.72;;;3.17;;
9729;SDS011;4904;49.152;11.004;2024-02-14T02:42:42;4.55;;;3.08;;
9729;SDS011;4904;49.152;11.004;2024-02-14T02:45:10;6.18;;;3.20;;
9729;SDS011;4904;49.152;11.004;2024-02-14T02:47:37;4.65;;;2.45;;
9729;SDS011;4904;49.152;11.004;2024-02-14T02:50:05;3.67;;;2.88;;
9729;SDS011;4904;49.152;11.004;2024-02-14T02:52:33;4.60;;;3.03;;
9729;SDS011;4904;49.152;11.004;2024-02-14T02:54:59;3.92;;;2.58;;
9729;SDS011;4904;49.152;11.004;2024-02-14T02:57:28;5.25;;;3.17;;
9729;SDS011;4904;49.152;11.004;2024-02-14T02:59:57;5.75;;;3.00;;
9729;SDS011;4904;49.152;11.004;2024-02-14T03:02:24;4.30;;;2.88;;
9729;SDS011;4904;49.152;11.004;2024-02-14T03:04:51;5.20;;;2.92;;
9729;SDS011;4904;49.152;11.004;2024-02-14T03:07:18;6.00;;;3.05;;
9729;SDS011;4904;49.152;11.004;2024-02-14T03:09:45;3.22;;;2.72;;
9729;SDS011;4904;49.152;11.004;2024-02-14T03:12:12;5.25;;;2.95;;
9729;SDS011;4904;49.152;11.004;2024-02-14T03:14:42;4.25;;;2.88;;
9729;SDS011;4904;49.152;11.004;2024-02-14T03:17:09;7.40;;;2.72;;
9729;SDS011;4904;49.152;11.004;2024-02-14T03:19:36;4.72;;;2.90;;
9729;SDS011;4904;49.152;11.004;2024-02-14T03:22:04;7.68;;;3.00;;
9729;SDS011;4904;49.152;11.004;2024-02-14T03:24:33;5.68;;;2.70;;
9729;SDS011;4904;49.152;11.004;2024-02-14T03:27:02;4.50;;;2.60;;
9729;SDS011;4904;49.152;11.004;2024-02-14T03:29:30;3.65;;;2.55;;
9729;SDS011;4904;49.152;11.004;2024-02-14T03:31:59;5.72;;;2.83;;
9729;SDS011;4904;49.152;11.004;2024-02-14T03:34:29;5.90;;;2.70;;
9729;SDS011;4904;49.152;11.004;2024-02-14T03:36:58;4.03;;;2.92;;
9729;SDS011;4904;49.152;11.004;2024-02-14T03:39:27;5.65;;;2.97;;
9729;SDS011;4904;49.152;11.004;2024-02-14T03:41:54;4.13;;;3.45;;
9729;SDS011;4904;49.152;11.004;2024-02-14T03:44:21;7.00;;;3.17;;
9729;SDS011;4904;49.152;11.004;2024-02-14T03:46:48;6.35;;;3.78;;
9729;SDS011;4904;49.152;11.004;2024-02-14T03:49:16;5.28;;;3.17;;
9729;SDS011;4904;49.152;11.004;2024-02-14T03:51:43;8.85;;;3.40;;
9729;SDS011;4904;49.152;11.004;2024-02-14T03:54:10;5.28;;;3.65;;
9729;SDS011;4904;49.152;11.004;2024-02-14T03:56:37;6.60;;;3.67;;
9729;SDS011;4904;49.152;11.004;2024-02-14T03:59:04;6.70;;;3.65;;
9729;SDS011;4904;49.152;11.004;2024-02-14T04:01:32;5.65;;;3.95;;
9729;SDS011;4904;49.152;11.004;2024-02-14T04:04:01;5.43;;;3.90;;
9729;SDS011;4904;49.152;11.004;2024-02-14T04:06:29;6.80;;;4.30;;
9729;SDS011;4904;49.152;11.004;2024-02-14T04:08:57;4.80;;;3.92;;
9729;SDS011;4904;49.152;11.004;2024-02-14T04:11:25;4.13;;;3.72;;
9729;SDS011;4904;49.152;11.004;2024-02-14T04:13:51;7.78;;;4.43;;
9729;SDS011;4904;49.152;11.004;2024-02-14T04:16:19;6.00;;;3.88;;
9729;SDS011;4904;49.152;11.004;2024-02-14T04:18:47;7.78;;;5.18;;
9729;SDS011;4904;49.152;11.004;2024-02-14T04:21:14;6.95;;;4.60;;
9729;SDS011;4904;49.152;11.004;2024-02-14T04:23:42;8.02;;;4.63;;
9729;SDS011;4904;49.152;11.004;2024-02-14T04:26:09;8.15;;;4.15;;
9729;SDS011;4904;49.152;11.004;2024-02-14T04:28:38;6.55;;;4.53;;
9729;SDS011;4904;49.152;11.004;2024-02-14T04:31:05;8.00;;;4.82;;
9729;SDS011;4904;49.152;11.004;2024-02-14T04:33:32;9.88;;;4.35;;
9729;SDS011;4904;49.152;11.004;2024-02-14T04:35:59;5.95;;;4.30;;
9729;SDS011;4904;49.152;11.004;2024-02-14T04:38:26;6.30;;;4.30;;
9729;SDS011;4904;49.152;11.004;2024-02-14T04:40:55;7.22;;;4.68;;
9729;SDS011;4904;49.152;11.004;2024-02-14T04:43:23;6.90;;;4.70;;
9729;SDS011;4904;49.152;11.004;2024-02-14T04:45:50;5.78;;;4.70;;
9729;SDS011;4904;49.152;11.004;2024-02-14T04:48:17;7.15;;;4.43;;
9729;SDS011;4904;49.152;11.004;2024-02-14T04:50:44;5.90;;;4.57;;
9729;SDS011;4904;49.152;11.004;2024-02-14T04:53:10;6.60;;;4.82;;
9729;SDS011;4904;49.152;11.004;2024-02-14T04:55:37;6.78;;;5.30;;
9729;SDS011;4904;49.152;11.004;2024-02-14T04:58:05;8.60;;;5.30;;
9729;SDS011;4904;49.152;11.004;2024-02-14T05:00:32;6.75;;;4.65;;
9729;SDS011;4904;49.152;11.004;2024-02-14T05:02:59;7.10;;;5.03;;
9729;SDS011;4904;49.152;11.004;2024-02-14T05:05:26;6.78;;;5.35;;
9729;SDS011;4904;49.152;11.004;2024-02-14T05:07:53;7.18;;;5.07;;
9729;SDS011;4904;49.152;11.004;2024-02-14T05:10:20;7.97;;;4.75;;
9729;SDS011;4904;49.152;11.004;2024-02-14T05:12:46;5.38;;;4.55;;
9729;SDS011;4904;49.152;11.004;2024-02-14T05:15:15;8.77;;;5.43;;
9729;SDS011;4904;49.152;11.004;2024-02-14T05:17:42;9.35;;;4.97;;
9729;SDS011;4904;49.152;11.004;2024-02-14T05:20:09;6.30;;;4.60;;
9729;SDS011;4904;49.152;11.004;2024-02-14T05:22:37;5.82;;;4.70;;
9729;SDS011;4904;49.152;11.004;2024-02-14T05:25:04;6.10;;;5.00;;
9729;SDS011;4904;49.152;11.004;2024-02-14T05:27:32;8.38;;;5.30;;
9729;SDS011;4904;49.152;11.004;2024-02-14T05:29:59;6.93;;;4.97;;
9729;SDS011;4904;49.152;11.004;2024-02-14T05:32:28;6.97;;;5.03;;
9729;SDS011;4904;49.152;11.004;2024-02-14T05:34:54;7.47;;;5.22;;
9729;SDS011;4904;49.152;11.004;2024-02-14T05:37:21;7.70;;;5.15;;
9729;SDS011;4904;49.152;11.004;2024-02-14T05:39:48;7.97;;;5.60;;
9729;SDS011;4904;49.152;11.004;2024-02-14T05:42:15;9.75;;;5.80;;
9729;SDS011;4904;49.152;11.004;2024-02-14T05:44:42;6.25;;;4.97;;
9729;SDS011;4904;49.152;11.004;2024-02-14T05:47:09;9.38;;;5.97;;
9729;SDS011;4904;49.152;11.004;2024-02-14T05:49:38;7.95;;;5.32;;
9729;SDS011;4904;49.152;11.004;2024-02-14T05:52:05;8.35;;;6.03;;
9729;SDS011;4904;49.152;11.004;2024-02-14T05:54:32;6.07;;;5.47;;
9729;SDS011;4904;49.152;11.004;2024-02-14T05:56:59;6.80;;;5.35;;
9729;SDS011;4904;49.152;11.004;2024-02-14T05:59:27;7.93;;;6.13;;
9729;SDS011;4904;49.152;11.004;2024-02-14T06:01:54;7.78;;;6.03;;
9729;SDS011;4904;49.152;11.004;2024-02-14T06:04:21;10.30;;;5.88;;
9729;SDS011;4904;49.152;11.004;2024-02-14T06:06:49;8.48;;;5.90;;
9729;SDS011;4904;49.152;11.004;2024-02-14T06:09:16;8.27;;;5.80;;
9729;SDS011;4904;49.152;11.004;2024-02-14T06:11:43;8.85;;;5.95;;
9729;SDS011;4904;49.152;11.004;2024-02-14T06:14:10;9.20;;;6.55;;
9729;SDS011;4904;49.152;11.004;2024-02-14T06:16:37;9.00;;;6.03;;
9729;SDS011;4904;49.152;11.004;2024-02-14T06:19:04;7.10;;;5.75;;
9729;SDS011;4904;49.152;11.004;2024-02-14T06:21:31;6.43;;;5.60;;
9729;SDS011;4904;49.152;11.004;2024-02-14T06:24:00;9.98;;;5.70;;
9729;SDS011;4904;49.152;11.004;2024-02-14T06:26:29;8.05;;;5.75;;
9729;SDS011;4904;49.152;11.004;2024-02-14T06:28:56;9.40;;;5.82;;
9729;SDS011;4904;49.152;11.004;2024-02-14T06:31:23;8.70;;;5.93;;
9729;SDS011;4904;49.152;11.004;2024-02-14T06:33:50;6.20;;;5.13;;
9729;SDS011;4904;49.152;11.004;2024-02-14T06:36:17;8.80;;;5.63;;
9729;SDS011;4904;49.152;11.004;2024-02-14T06:38:43;6.63;;;5.00;;
9729;SDS011;4904;49.152;11.004;2024-02-14T06:41:12;7.07;;;5.22;;
9729;SDS011;4904;49.152;11.004;2024-02-14T06:43:39;8.45;;;5.10;;
9729;SDS011;4904;49.152;11.004;2024-02-14T06:46:06;6.43;;;5.00;;
9729;SDS011;4904;49.152;11.004;2024-02-14T06:48:33;6.28;;;5.10;;
9729;SDS011;4904;49.152;11.004;2024-02-14T06:51:00;5.75;;;4.75;;
9729;SDS011;4904;49.152;11.004;2024-02-14T06:53:27;8.75;;;5.30;;
9729;SDS011;4904;49.152;11.004;2024-02-14T06:55:53;5.90;;;4.97;;
9729;SDS011;4904;49.152;11.004;2024-02-14T06:58:22;6.47;;;5.50;;
9729;SDS011;4904;49.152;11.004;2024-02-14T07:00:48;8.48;;;5.18;;
9729;SDS011;4904;49.152;11.004;2024-02-14T07:03:15;7.25;;;5.07;;
9729;SDS011;4904;49.152;11.004;2024-02-14T07:05:42;9.80;;;5.25;;
9729;SDS011;4904;49.152;11.004;2024-02-14T07:08:09;8.98;;;5.78;;
9729;SDS011;4904;49.152;11.004;2024-02-14T07:10:36;8.30;;;4.93;;
9729;SDS011;4904;49.152;11.004;2024-02-14T07:13:03;8.52;;;5.68;;
9729;SDS011;4904;49.152;11.004;2024-02-14T07:15:31;7.15;;;5.45;;
9729;SDS011;4904;49.152;11.004;2024-02-14T07:17:58;7.57;;;5.40;;
9729;SDS011;4904;49.152;11.004;2024-02-14T07:20:25;6.43;;;5.55;;
9729;SDS011;4904;49.152;11.004;2024-02-14T07:22:52;8.85;;;5.50;;
9729;SDS011;4904;49.152;11.004;2024-02-14T07:25:21;8.80;;;5.32;;
9729;SDS011;4904;49.152;11.004;2024-02-14T07:27:48;8.20;;;5.50;;
9729;SDS011;4904;49.152;11.004;2024-02-14T07:30:15;7.05;;;5.35;;
9729;SDS011;4904;49.152;11.004;2024-02-14T07:32:44;7.43;;;5.50;;
9729;SDS011;4904;49.152;11.004;2024-02-14T07:35:11;5.45;;;4.93;;
9729;SDS011;4904;49.152;11.004;2024-02-14T07:37:39;8.00;;;5.45;;
9729;SDS011;4904;49.152;11.004;2024-02-14T07:40:07;6.95;;;4.78;;
9729;SDS011;4904;49.152;11.004;2024-02-14T07:42:35;9.98;;;5.15;;
9729;SDS011;4904;49.152;11.004;2024-02-14T07:45:02;6.45;;;4.47;;
9729;SDS011;4904;49.152;11.004;2024-02-14T07:47:29;7.60;;;5.50;;
9729;SDS011;4904;49.152;11.004;2024-02-14T07:49:57;8.82;;;4.68;;
9729;SDS011;4904;49.152;11.004;2024-02-14T07:52:24;10.32;;;5.05;;
9729;SDS011;4904;49.152;11.004;2024-02-14T07:54:51;11.32;;;5.47;;
9729;SDS011;4904;49.152;11.004;2024-02-14T07:57:20;7.00;;;4.72;;
9729;SDS011;4904;49.152;11.004;2024-02-14T07:59:48;6.32;;;4.63;;
9729;SDS011;4904;49.152;11.004;2024-02-14T08:02:15;7.22;;;4.70;;
9729;SDS011;4904;49.152;11.004;2024-02-14T08:04:41;6.45;;;4.57;;
9729;SDS011;4904;49.152;11.004;2024-02-14T08:07:10;7.05;;;4.57;;
9729;SDS011;4904;49.152;11.004;2024-02-14T08:09:36;6.20;;;4.43;;
9729;SDS011;4904;49.152;11.004;2024-02-14T08:12:05;6.97;;;4.50;;
9729;SDS011;4904;49.152;11.004;2024-02-14T08:14:32;6.13;;;4.45;;
9729;SDS011;4904;49.152;11.004;2024-02-14T08:16:59;11.02;;;4.65;;
9729;SDS011;4904;49.152;11.004;2024-02-14T08:19:26;7.45;;;4.55;;
9729;SDS011;4904;49.152;11.004;2024-02-14T08:21:53;5.03;;;3.90;;
9729;SDS011;4904;49.152;11.004;2024-02-14T08:24:24;7.60;;;4.60;;
9729;SDS011;4904;49.152;11.004;2024-02-14T08:26:52;7.35;;;4.32;;
9729;SDS011;4904;49.152;11.004;2024-02-14T08:29:19;7.97;;;4.20;;
9729;SDS011;4904;49.152;11.004;2024-02-14T08:31:46;7.88;;;4.68;;
9729;SDS011;4904;49.152;11.004;2024-02-14T08:34:14;5.22;;;4.22;;
9729;SDS011;4904;49.152;11.004;2024-02-14T08:36:41;7.68;;;4.70;;
9729;SDS011;4904;49.152;11.004;2024-02-14T08:39:08;8.48;;;4.50;;
9729;SDS011;4904;49.152;11.004;2024-02-14T08:41:37;8.57;;;4.78;;
9729;SDS011;4904;49.152;11.004;2024-02-14T08:44:08;5.97;;;4.38;;
9729;SDS011;4904;49.152;11.004;2024-02-14T08:46:35;6.43;;;3.85;;
9729;SDS011;4904;49.152;11.004;2024-02-14T08:49:02;6.88;;;3.95;;
9729;SDS011;4904;49.152;11.004;2024-02-14T08:51:33;5.78;;;4.20;;
9729;SDS011;4904;49.152;11.004;2024-02-14T08:54:00;5.10;;;3.97;;
9729;SDS011;4904;49.152;11.004;2024-02-14T08:56:30;4.45;;;3.75;;
9729;SDS011;4904;49.152;11.004;2024-02-14T08:58:59;9.20;;;4.47;;
9729;SDS011;4904;49.152;11.004;2024-02-14T09:01:27;7.63;;;4.28;;
9729;SDS011;4904;49.152;11.004;2024-02-14T09:03:54;5.57;;;4.10;;
9729;SDS011;4904;49.152;11.004;2024-02-14T09:06:21;5.68;;;3.97;;
9729;SDS011;4904;49.152;11.004;2024-02-14T09:08:48;6.18;;;4.30;;
9729;SDS011;4904;49.152;11.004;2024-02-14T09:11:15;6.60;;;4.07;;
9729;SDS011;4904;49.152;11.004;2024-02-14T09:13:42;6.32;;;4.18;;
9729;SDS011;4904;49.152;11.004;2024-02-14T09:16:11;5.97;;;3.97;;
9729;SDS011;4904;49.152;11.004;2024-02-14T09:18:39;5.95;;;4.00;;
9729;SDS011;4904;49.152;11.004;2024-02-14T09:21:05;5.00;;;3.97;;
9729;SDS011;4904;49.152;11.004;2024-02-14T09:23:33;4.03;;;3.53;;
9729;SDS011;4904;49.152;11.004;2024-02-14T09:26:05;4.63;;;3.50;;
9729;SDS011;4904;49.152;11.004;2024-02-14T09:28:32;6.25;;;3.80;;
9729;SDS011;4904;49.152;11.004;2024-02-14T09:31:00;6.10;;;4.90;;
9729;SDS011;4904;49.152;11.004;2024-02-14T09:33:30;6.57;;;3.33;;
9729;SDS011;4904;49.152;11.004;2024-02-14T09:35:57;8.35;;;3.90;;
9729;SDS011;4904;49.152;11.004;2024-02-14T09:38:24;4.13;;;3.50;;
9729;SDS011;4904;49.152;11.004;2024-02-14T09:40:52;4.78;;;3.58;;
9729;SDS011;4904;49.152;11.004;2024-02-14T09:43:22;5.72;;;4.05;;
9729;SDS011;4904;49.152;11.004;2024-02-14T09:45:54;4.53;;;3.60;;
9729;SDS011;4904;49.152;11.004;2024-02-14T09:48:21;5.75;;;3.75;;
9729;SDS011;4904;49.152;11.004;2024-02-14T09:50:50;4.95;;;3.55;;
9729;SDS011;4904;49.152;11.004;2024-02-14T09:53:20;5.30;;;3.53;;
9729;SDS011;4904;49.152;11.004;2024-02-14T09:55:49;4.13;;;3.30;;
9729;SDS011;4904;49.152;11.004;2024-02-14T09:58:17;5.65;;;3.20;;
9729;SDS011;4904;49.152;11.004;2024-02-14T10:00:44;7.53;;;3.75;;
9729;SDS011;4904;49.152;11.004;2024-02-14T10:03:11;4.45;;;3.60;;
9729;SDS011;4904;49.152;11.004;2024-02-14T10:05:38;5.60;;;3.60;;
9729;SDS011;4904;49.152;11.004;2024-02-14T10:08:07;5.10;;;3.58;;
9729;SDS011;4904;49.152;11.004;2024-02-14T10:10:34;5.53;;;3.70;;
9729;SDS011;4904;49.152;11.004;2024-02-14T10:13:03;4.30;;;3.63;;
9729;SDS011;4904;49.152;11.004;2024-02-14T10:15:31;5.28;;;3.35;;
9729;SDS011;4904;49.152;11.004;2024-02-14T10:17:58;5.63;;;3.38;;
9729;SDS011;4904;49.152;11.004;2024-02-14T10:20:25;5.70;;;3.47;;
9729;SDS011;4904;49.152;11.004;2024-02-14T10:22:59;5.65;;;3.65;;
9729;SDS011;4904;49.152;11.004;2024-02-14T10:25:29;6.05;;;3.13;;
9729;SDS011;4904;49.152;11.004;2024-02-14T10:27:56;4.03;;;2.63;;
9729;SDS011;4904;49.152;11.004;2024-02-14T10:30:23;6.47;;;2.45;;
9729;SDS011;4904;49.152;11.004;2024-02-14T10:32:50;7.13;;;2.72;;
9729;SDS011;4904;49.152;11.004;2024-02-14T10:35:17;4.78;;;2.50;;
9729;SDS011;4904;49.152;11.004;2024-02-14T10:37:46;4.28;;;2.55;;
9729;SDS011;4904;49.152;11.004;2024-02-14T10:40:14;3.15;;;2.25;;
9729;SDS011;4904;49.152;11.004;2024-02-14T10:42:43;7.03;;;2.20;;
9729;SDS011;4904;49.152;11.004;2024-02-14T10:45:10;6.47;;;2.45;;
9729;SDS011;4904;49.152;11.004;2024-02-14T10:47:39;5.95;;;2.65;;
9729;SDS011;4904;49.152;11.004;2024-02-14T10:50:09;5.07;;;2.65;;
9729;SDS011;4904;49.152;11.004;2024-02-14T10:52:38;2.88;;;2.35;;
9729;SDS011;4904;49.152;11.004;2024-02-14T10:55:07;4.28;;;2.25;;
9729;SDS011;4904;49.152;11.004;2024-02-14T10:57:36;3.25;;;1.90;;
9729;SDS011;4904;49.152;11.004;2024-02-14T11:00:06;4.55;;;2.22;;
9729;SDS011;4904;49.152;11.004;2024-02-14T11:02:35;1.92;;;1.55;;
9729;SDS011;4904;49.152;11.004;2024-02-14T11:05:04;2.17;;;1.98;;
9729;SDS011;4904;49.152;11.004;2024-02-14T11:07:32;4.50;;;2.03;;
9729;SDS011;4904;49.152;11.004;2024-02-14T11:10:04;5.60;;;2.58;;
9729;SDS011;4904;49.152;11.004;2024-02-14T11:12:32;2.10;;;1.90;;
9729;SDS011;4904;49.152;11.004;2024-02-14T11:15:01;3.05;;;2.10;;
9729;SDS011;4904;49.152;11.004;2024-02-14T11:17:37;3.28;;;1.80;;
9729;SDS011;4904;49.152;11.004;2024-02-14T11:20:11;3.22;;;2.13;;
9729;SDS011;4904;49.152;11.004;2024-02-14T11:22:50;1.90;;;1.80;;
9729;SDS011;4904;49.152;11.004;2024-02-14T11:25:22;3.60;;;2.03;;
9729;SDS011;4904;49.152;11.004;2024-02-14T11:27:50;2.35;;;1.77;;
9729;SDS011;4904;49.152;11.004;2024-02-14T11:30:27;2.50;;;1.73;;
9729;SDS011;4904;49.152;11.004;2024-02-14T11:33:06;3.72;;;1.90;;
9729;SDS011;4904;49.152;11.004;2024-02-14T11:35:41;3.42;;;1.83;;
9729;SDS011;4904;49.152;11.004;2024-02-14T11:38:08;3.42;;;1.95;;
9729;SDS011;4904;49.152;11.004;2024-02-14T11:40:35;6.32;;;1.90;;
9729;SDS011;4904;49.152;11.004;2024-02-14T11:43:04;5.10;;;1.83;;
9729;SDS011;4904;49.152;11.004;2024-02-14T11:45:37;4.78;;;1.90;;
9729;SDS011;4904;49.152;11.004;2024-02-14T11:48:07;2.17;;;1.90;;
9729;SDS011;4904;49.152;11.004;2024-02-14T11:50:34;3.47;;;2.47;;
9729;SDS011;4904;49.152;11.004;2024-02-14T11:53:01;2.83;;;1.90;;
9729;SDS011;4904;49.152;11.004;2024-02-14T11:55:29;3.15;;;2.05;;
9729;SDS011;4904;49.152;11.004;2024-02-14T11:57:57;4.22;;;2.22;;
9729;SDS011;4904;49.152;11.004;2024-02-14T12:00:24;4.43;;;1.73;;
9729;SDS011;4904;49.152;11.004;2024-02-14T12:02:53;3.65;;;2.13;;
9729;SDS011;4904;49.152;11.004;2024-02-14T12:05:20;2.75;;;2.00;;
9729;SDS011;4904;49.152;11.004;2024-02-14T12:07:47;2.95;;;1.90;;
9729;SDS011;4904;49.152;11.004;2024-02-14T12:10:15;2.72;;;1.65;;
9729;SDS011;4904;49.152;11.004;2024-02-14T12:12:44;3.35;;;2.00;;
9729;SDS011;4904;49.152;11.004;2024-02-14T12:15:12;2.58;;;2.17;;
9729;SDS011;4904;49.152;11.004;2024-02-14T12:17:41;3.38;;;1.60;;
9729;SDS011;4904;49.152;11.004;2024-02-14T12:20:10;2.28;;;1.73;;
9729;SDS011;4904;49.152;11.004;2024-02-14T12:22:38;2.50;;;1.90;;
9729;SDS011;4904;49.152;11.004;2024-02-14T12:25:05;3.83;;;2.22;;
9729;SDS011;4904;49.152;11.004;2024-02-14T12:27:33;3.53;;;2.03;;
9729;SDS011;4904;49.152;11.004;2024-02-14T12:30:02;2.53;;;2.30;;
9729;SDS011;4904;49.152;11.004;2024-02-14T12:32:30;2.97;;;2.13;;
9729;SDS011;4904;49.152;11.004;2024-02-14T12:34:58;2.42;;;2.03;;
9729;SDS011;4904;49.152;11.004;2024-02-14T12:37:26;3.03;;;2.40;;
9729;SDS011;4904;49.152;11.004;2024-02-14T12:39:54;3.20;;;2.20;;
9729;SDS011;4904;49.152;11.004;2024-02-14T12:42:21;2.72;;;1.70;;
9729;SDS011;4904;49.152;11.004;2024-02-14T12:44:51;2.55;;;1.67;;
9729;SDS011;4904;49.152;11.004;2024-02-14T12:47:18;4.75;;;1.55;;
9729;SDS011;4904;49.152;11.004;2024-02-14T12:49:47;5.53;;;2.22;;
9729;SDS011;4904;49.152;11.004;2024-02-14T12:52:14;3.53;;;1.80;;
9729;SDS011;4904;49.152;11.004;2024-02-14T12:54:43;2.75;;;2.10;;
9729;SDS011;4904;49.152;11.004;2024-02-14T12:57:10;3.30;;;2.10;;
9729;SDS011;4904;49.152;11.004;2024-02-14T12:59:37;3.72;;;2.10;;
9729;SDS011;4904;49.152;11.004;2024-02-14T13:02:04;4.30;;;2.38;;
9729;SDS011;4904;49.152;11.004;2024-02-14T13:04:32;3.78;;;1.80;;
9729;SDS011;4904;49.152;11.004;2024-02-14T13:07:00;2.58;;;1.88;;
9729;SDS011;4904;49.152;11.004;2024-02-14T13:09:27;4.32;;;2.38;;
9729;SDS011;4904;49.152;11.004;2024-02-14T13:11:55;2.53;;;1.60;;
9729;SDS011;4904;49.152;11.004;2024-02-14T13:14:22;2.63;;;1.85;;
9729;SDS011;4904;49.152;11.004;2024-02-14T13:16:49;2.65;;;1.88;;
9729;SDS011;4904;49.152;11.004;2024-02-14T13:19:16;2.17;;;1.63;;
9729;SDS011;4904;49.152;11.004;2024-02-14T13:21:43;3.45;;;1.77;;
9729;SDS011;4904;49.152;11.004;2024-02-14T13:24:11;2.70;;;1.80;;
9729;SDS011;4904;49.152;11.004;2024-02-14T13:26:39;1.88;;;1.70;;
9729;SDS011;4904;49.152;11.004;2024-02-14T13:29:07;2.75;;;1.67;;
9729;SDS011;4904;49.152;11.004;2024-02-14T13:31:34;2.42;;;2.00;;
9729;SDS011;4904;49.152;11.004;2024-02-14T13:34:01;3.05;;;1.83;;
9729;SDS011;4904;49.152;11.004;2024-02-14T13:36:29;4.00;;;2.03;;
9729;SDS011;4904;49.152;11.004;2024-02-14T13:38:57;2.00;;;1.80;;
9729;SDS011;4904;49.152;11.004;2024-02-14T13:41:25;2.60;;;1.83;;
9729;SDS011;4904;49.152;11.004;2024-02-14T13:43:52;2.83;;;1.80;;
9729;SDS011;4904;49.152;11.004;2024-02-14T13:46:20;2.35;;;1.85;;
9729;SDS011;4904;49.152;11.004;2024-02-14T13:48:47;2.33;;;1.75;;
9729;SDS011;4904;49.152;11.004;2024-02-14T13:51:14;2.40;;;1.85;;
9729;SDS011;4904;49.152;11.004;2024-02-14T13:53:41;2.05;;;1.80;;
9729;SDS011;4904;49.152;11.004;2024-02-14T13:56:08;2.95;;;1.80;;
9729;SDS011;4904;49.152;11.004;2024-02-14T13:58:36;4.53;;;1.90;;
9729;SDS011;4904;49.152;11.004;2024-02-14T14:01:04;2.22;;;1.77;;
9729;SDS011;4904;49.152;11.004;2024-02-14T14:03:33;4.05;;;1.90;;
9729;SDS011;4904;49.152;11.004;2024-02-14T14:06:02;3.03;;;1.90;;
9729;SDS011;4904;49.152;11.004;2024-02-14T14:08:30;1.90;;;1.30;;
9729;SDS011;4904;49.152;11.004;2024-02-14T14:10:57;2.50;;;1.40;;
9729;SDS011;4904;49.152;11.004;2024-02-14T14:13:24;2.38;;;1.50;;
9729;SDS011;4904;49.152;11.004;2024-02-14T14:15:54;1.95;;;1.80;;
9729;SDS011;4904;49.152;11.004;2024-02-14T14:18:21;1.50;;;1.40;;
9729;SDS011;4904;49.152;11.004;2024-02-14T14:20:49;2.72;;;1.77;;
9729;SDS011;4904;49.152;11.004;2024-02-14T14:23:16;3.05;;;1.67;;
9729;SDS011;4904;49.152;11.004;2024-02-14T14:25:43;1.88;;;1.50;;
9729;SDS011;4904;49.152;11.004;2024-02-14T14:28:10;2.88;;;1.85;;
9729;SDS011;4904;49.152;11.004;2024-02-14T14:30:37;2.03;;;1.67;;
9729;SDS011;4904;49.152;11.004;2024-02-14T14:33:04;1.80;;;1.58;;
9729;SDS011;4904;49.152;11.004;2024-02-14T14:35:32;1.92;;;1.50;;
9729;SDS011;4904;49.152;11.004;2024-02-14T14:38:02;2.45;;;1.83;;
9729;SDS011;4904;49.152;11.004;2024-02-14T14:40:29;2.67;;;1.90;;
9729;SDS011;4904;49.152;11.004;2024-02-14T14:42:56;2.10;;;1.60;;
9729;SDS011;4904;49.152;11.004;2024-02-14T14:45:23;3.65;;;1.80;;
9729;SDS011;4904;49.152;11.004;2024-02-14T14:47:53;2.05;;;1.58;;
9729;SDS011;4904;49.152;11.004;2024-02-14T14:50:21;2.65;;;1.70;;
9729;SDS011;4904;49.152;11.004;2024-02-14T14:52:48;3.15;;;1.58;;
9729;SDS011;4904;49.152;11.004;2024-02-14T14:55:16;1.77;;;1.67;;
9729;SDS011;4904;49.152;11.004;2024-02-14T14:57:43;2.72;;;1.80;;
9729;SDS011;4904;49.152;11.004;2024-02-14T15:00:10;1.85;;;1.73;;
9729;SDS011;4904;49.152;11.004;2024-02-14T15:02:38;2.03;;;1.80;;